createdAt,value
2022-10-24T00:02:30.012Z,7.5
2022-10-24T00:07:28.044Z,7.4
2022-10-24T00:12:25.974Z,7.4
2022-10-24T00:17:24.107Z,7.4
2022-10-24T00:22:22.461Z,7.3
2022-10-24T00:27:20.657Z,7.3
2022-10-24T00:32:18.560Z,7.2
2022-10-24T00:37:16.778Z,7.2
2022-10-24T00:42:14.964Z,7.3
2022-10-24T00:47:13.060Z,7.3
2022-10-24T00:52:11.294Z,7.3
2022-10-24T00:57:09.302Z,7.2
2022-10-24T01:02:07.257Z,7.1
2022-10-24T01:07:05.470Z,7.1
2022-10-24T01:12:03.743Z,7.2
2022-10-24T01:17:01.866Z,7.2
2022-10-24T01:22:00.098Z,7.1
2022-10-24T01:26:58.176Z,6.9
2022-10-24T01:31:56.021Z,6.9
2022-10-24T01:36:54.151Z,6.8
2022-10-24T01:41:52.232Z,6.7
2022-10-24T01:46:50.460Z,6.6
2022-10-24T01:51:48.456Z,6.6
2022-10-24T01:56:46.525Z,6.6
2022-10-24T02:01:44.507Z,6.5
2022-10-24T02:06:42.793Z,6.5
2022-10-24T02:11:40.922Z,6.5
2022-10-24T02:16:38.973Z,6.5
2022-10-24T02:21:37.282Z,6.2
2022-10-24T02:26:35.385Z,6.3
2022-10-24T02:31:33.515Z,6.4
2022-10-24T02:36:31.719Z,6.5
2022-10-24T02:41:29.810Z,6.4
2022-10-24T02:46:27.819Z,6.3
2022-10-24T02:51:25.959Z,6.3
2022-10-24T02:56:24.220Z,6.3
2022-10-24T03:01:22.314Z,6.2
2022-10-24T03:06:20.388Z,6.2
2022-10-24T03:11:18.605Z,6.2
2022-10-24T03:16:16.536Z,6.1
2022-10-24T03:21:14.524Z,6.1
2022-10-24T03:26:12.807Z,6.1
2022-10-24T03:31:10.740Z,6
2022-10-24T03:36:08.910Z,6
2022-10-24T03:41:06.956Z,6
2022-10-24T03:46:05.120Z,5.9
2022-10-24T03:51:01.445Z,5.9
2022-10-24T03:55:59.677Z,5.9
2022-10-24T04:00:57.776Z,5.9
2022-10-24T04:05:55.817Z,5.9
2022-10-24T04:10:54.210Z,5.9
2022-10-24T04:15:52.559Z,5.8
2022-10-24T04:20:51.167Z,5.9
2022-10-24T04:25:49.417Z,5.8
2022-10-24T04:30:47.529Z,5.7
2022-10-24T04:35:45.769Z,5.7
2022-10-24T04:40:43.807Z,5.7
2022-10-24T04:45:42.010Z,5.6
2022-10-24T04:50:40.112Z,5.7
2022-10-24T05:00:36.638Z,5.9
2022-10-24T05:05:35.109Z,6.2
2022-10-24T05:10:33.439Z,6.4
2022-10-24T05:15:31.839Z,6.7
2022-10-24T05:20:30.646Z,7.1
2022-10-24T05:25:29.200Z,7.5
2022-10-24T05:30:27.706Z,8
2022-10-24T05:35:26.406Z,8.5
2022-10-24T05:40:25.119Z,9
2022-10-24T05:45:24.039Z,10.6
2022-10-24T05:50:24.086Z,12.6
2022-10-24T05:55:24.375Z,14.8
2022-10-24T06:00:24.589Z,16.6
2022-10-24T06:05:24.234Z,18.1
2022-10-24T06:10:23.639Z,19.4
2022-10-24T06:15:23.135Z,20.4
2022-10-24T06:20:22.543Z,21.7
2022-10-24T06:25:21.925Z,22.7
2022-10-24T06:30:20.835Z,23.5
2022-10-24T06:35:20.094Z,24.6
2022-10-24T06:40:19.130Z,25.9
2022-10-24T06:45:18.266Z,26.6
2022-10-24T06:50:20.191Z,27.5
2022-10-24T06:55:18.526Z,28.1
2022-10-24T07:00:17.506Z,28.7
2022-10-24T07:05:16.443Z,29.6
2022-10-24T07:10:15.037Z,30.4
2022-10-24T07:15:13.964Z,31.1
2022-10-24T07:20:12.758Z,31.9
2022-10-24T07:25:11.256Z,32.5
2022-10-24T07:30:10.265Z,33
2022-10-24T07:35:08.913Z,33.5
2022-10-24T07:40:07.813Z,34.1
2022-10-24T07:45:06.432Z,34.7
2022-10-24T07:50:04.932Z,35.2
2022-10-24T07:55:03.545Z,35.5
2022-10-24T08:00:02.392Z,36.2
2022-10-24T08:05:00.846Z,36.3
2022-10-24T08:09:59.198Z,36.7
2022-10-24T08:14:57.291Z,36.7
2022-10-24T08:19:55.635Z,37.3
2022-10-24T08:24:54.186Z,37.4
2022-10-24T08:29:52.362Z,38.1
2022-10-24T08:34:50.854Z,38.3
2022-10-24T08:39:49.240Z,38.4
2022-10-24T08:44:47.604Z,37.8
2022-10-24T08:49:47.819Z,39.3
2022-10-24T08:54:44.564Z,39.7
2022-10-24T08:59:43.071Z,40.2
2022-10-24T09:04:41.318Z,39.8
2022-10-24T09:09:39.299Z,39.7
2022-10-24T09:14:37.331Z,40.3
2022-10-24T09:19:35.299Z,40.2
2022-10-24T09:24:33.580Z,40.6
2022-10-24T09:29:31.774Z,40.7
2022-10-24T09:34:29.994Z,41
2022-10-24T09:39:28.139Z,41.4
2022-10-24T09:44:26.540Z,41.5
2022-10-24T09:49:25.118Z,42.3
2022-10-24T09:54:23.580Z,42
2022-10-24T09:59:22.022Z,42.5
2022-10-24T10:04:20.262Z,42.2
2022-10-24T10:09:18.356Z,42.9
2022-10-24T10:14:16.620Z,43
2022-10-24T10:19:14.752Z,43.2
2022-10-24T10:24:13.327Z,43.7
2022-10-24T10:29:11.593Z,44
2022-10-24T10:34:09.629Z,44.1
2022-10-24T10:39:07.573Z,44.3
2022-10-24T10:44:05.416Z,44
2022-10-24T10:49:03.276Z,43.6
2022-10-24T10:54:01.203Z,42.9
2022-10-24T10:58:58.827Z,42.7
2022-10-24T11:03:56.502Z,42
2022-10-24T11:08:53.860Z,41.3
2022-10-24T11:13:51.099Z,41.1
2022-10-24T11:18:48.223Z,40.2
2022-10-24T11:23:45.483Z,39.7
2022-10-24T11:28:42.788Z,39
2022-10-24T11:33:40.414Z,38.3
2022-10-24T11:38:37.875Z,37.9
2022-10-24T11:43:35.660Z,37.7
2022-10-24T11:48:33.669Z,37.8
2022-10-24T11:53:31.134Z,36.6
2022-10-24T11:58:28.971Z,36.7
2022-10-24T12:03:26.854Z,36.3
2022-10-24T12:08:25.925Z,36.3
2022-10-24T12:13:23.611Z,36.1
2022-10-24T12:18:21.153Z,35.3
2022-10-24T12:23:18.815Z,35
2022-10-24T12:28:16.632Z,34.8
2022-10-24T12:33:14.668Z,34.6
2022-10-24T12:38:12.078Z,33.9
2022-10-24T12:43:09.853Z,32.8
2022-10-24T12:48:07.036Z,31.8
2022-10-24T12:53:04.507Z,30.8
2022-10-24T12:58:02.291Z,30.3
2022-10-24T13:02:59.931Z,29.9
2022-10-24T13:07:57.661Z,29.3
2022-10-24T13:12:55.336Z,28.7
2022-10-24T13:17:53.121Z,28.5
2022-10-24T13:22:50.926Z,27.7
2022-10-24T13:27:47.923Z,26.5
2022-10-24T13:32:45.545Z,25.8
2022-10-24T13:37:42.984Z,25.3
2022-10-24T13:42:41.100Z,25.1
2022-10-24T13:47:39.255Z,24.8
2022-10-24T13:52:37.374Z,24.5
2022-10-24T13:57:34.936Z,23.8
2022-10-24T14:02:32.821Z,23.3
2022-10-24T14:07:30.523Z,22.8
2022-10-24T14:12:28.212Z,21.9
2022-10-24T14:17:26.023Z,21.4
2022-10-24T14:22:23.663Z,21.1
2022-10-24T14:27:21.466Z,20.5
2022-10-24T14:32:19.883Z,20
2022-10-24T14:37:17.595Z,19.6
2022-10-24T14:42:15.459Z,19.3
2022-10-24T14:47:13.541Z,19.5
2022-10-24T14:52:11.993Z,18.8
2022-10-24T14:57:10.362Z,19.3
2022-10-24T15:02:08.062Z,19
2022-10-24T15:07:05.982Z,18.5
2022-10-24T15:12:04.090Z,18.1
2022-10-24T15:17:02.258Z,17.9
2022-10-24T15:22:00.187Z,17.9
2022-10-24T15:26:58.254Z,17.9
2022-10-24T15:31:56.566Z,17.8
2022-10-24T15:36:54.821Z,17.4
2022-10-24T15:41:53.132Z,17.2
2022-10-24T15:46:51.353Z,17
2022-10-24T15:51:50.085Z,16.6
2022-10-24T15:56:46.527Z,16.5
2022-10-24T16:01:44.781Z,16.5
2022-10-24T16:06:43.211Z,16.4
2022-10-24T16:11:41.034Z,16.1
2022-10-24T16:16:39.129Z,16.2
2022-10-24T16:21:37.189Z,16.2
2022-10-24T16:26:35.065Z,16
2022-10-24T16:31:33.109Z,15.8
2022-10-24T16:36:31.020Z,15.4
2022-10-24T16:41:29.299Z,15.6
2022-10-24T16:46:27.418Z,15.5
2022-10-24T16:51:25.523Z,15.2
2022-10-24T16:56:23.810Z,15.3
2022-10-24T17:01:22.340Z,15.3
2022-10-24T17:06:20.296Z,15.2
2022-10-24T17:11:39.820Z,15.1
2022-10-24T17:16:15.025Z,14.6
2022-10-24T17:21:13.893Z,14.3
2022-10-24T17:26:10.757Z,14
2022-10-24T17:31:08.379Z,13.9
2022-10-24T17:36:06.458Z,13.8
2022-10-24T17:41:04.533Z,13.6
2022-10-24T17:46:02.409Z,13.5
2022-10-24T17:51:00.448Z,13.4
2022-10-24T17:55:58.498Z,13.2
2022-10-24T18:00:56.346Z,13
2022-10-24T18:05:54.572Z,12.9
2022-10-24T18:10:52.807Z,12.7
2022-10-24T18:15:50.854Z,12.6
2022-10-24T18:20:49.033Z,12.4
2022-10-24T18:25:47.100Z,12.3
2022-10-24T18:30:45.526Z,12.2
2022-10-24T18:35:43.806Z,12.2
2022-10-24T18:40:42.019Z,12.2
2022-10-24T18:45:40.110Z,12.1
2022-10-24T18:50:37.996Z,12.1
2022-10-24T18:55:36.079Z,12
2022-10-24T19:00:34.283Z,12.1
2022-10-24T19:05:32.334Z,12
2022-10-24T19:10:30.376Z,11.9
2022-10-24T19:15:28.719Z,11.9
2022-10-24T19:20:26.765Z,11.8
2022-10-24T19:25:24.619Z,11.7
2022-10-24T19:30:22.781Z,11.6
2022-10-24T19:35:20.819Z,11.7
2022-10-24T19:40:18.905Z,11.6
2022-10-24T19:45:18.429Z,11.5
2022-10-24T19:50:15.209Z,11.4
2022-10-24T19:55:13.283Z,11.3
2022-10-24T20:00:11.291Z,11.2
2022-10-24T20:05:09.184Z,11.1
2022-10-24T20:10:07.186Z,10.9
2022-10-24T20:15:05.446Z,10.8
2022-10-24T20:20:03.451Z,10.7
2022-10-24T20:25:01.605Z,10.6
2022-10-24T20:29:59.862Z,10.6
2022-10-24T20:34:57.993Z,10.5
2022-10-24T20:39:56.258Z,10.6
2022-10-24T20:44:54.435Z,10.5
2022-10-24T20:49:52.881Z,10.3
2022-10-24T20:54:51.360Z,10.3
2022-10-24T20:59:49.516Z,10.2
2022-10-24T21:04:47.619Z,10.1
2022-10-24T21:09:45.889Z,10.1
2022-10-24T21:14:44.098Z,10.1
2022-10-24T21:19:42.161Z,9.9
2022-10-24T21:24:40.370Z,9.9
2022-10-24T21:29:38.757Z,10
2022-10-24T21:34:37.111Z,10
2022-10-24T21:39:35.081Z,9.9
2022-10-24T21:44:33.236Z,10
2022-10-24T21:49:45.609Z,9.9
2022-10-24T21:54:41.224Z,9.7
2022-10-24T21:59:39.153Z,9.7
2022-10-24T22:04:37.070Z,9.5
2022-10-24T22:09:35.176Z,9.5
2022-10-24T22:14:33.361Z,9.5
2022-10-24T22:19:31.454Z,9.5
2022-10-24T22:24:29.495Z,9.3
2022-10-24T22:29:27.796Z,9.3
2022-10-24T22:34:25.792Z,9.2
2022-10-24T22:39:23.796Z,9.1
2022-10-24T22:44:21.885Z,9.1
2022-10-24T22:49:20.136Z,9.3
2022-10-24T22:54:18.454Z,9.1
2022-10-24T22:59:16.538Z,9
2022-10-24T23:04:14.660Z,8.9
2022-10-24T23:09:12.628Z,8.8
2022-10-24T23:14:10.847Z,8.8
2022-10-24T23:19:08.980Z,8.7
2022-10-24T23:24:07.083Z,8.5
2022-10-24T23:29:05.150Z,8.5
2022-10-24T23:34:03.268Z,8.5
2022-10-24T23:39:01.390Z,8.5
2022-10-24T23:43:59.526Z,8.5
2022-10-24T23:48:57.452Z,8.5
2022-10-24T23:53:55.398Z,8.3
2022-10-24T23:58:53.578Z,8.2
